createdAt,value
2018-03-04T00:00:48.923Z,92.19
2018-03-04T00:01:58.379Z,92.19
2018-03-04T00:03:08.366Z,91.82
2018-03-04T00:04:17.820Z,91.63
2018-03-04T00:05:27.550Z,90.97
2018-03-04T00:06:37.532Z,91.25
2018-03-04T00:07:47.258Z,90.97
2018-03-04T00:08:57.245Z,91.82
2018-03-04T00:10:07.236Z,91.82
2018-03-04T00:11:16.952Z,91.63
2018-03-04T00:12:26.938Z,91.16
2018-03-04T00:13:36.661Z,91.72
2018-03-04T00:14:46.645Z,91.72
2018-03-04T00:15:56.630Z,92.19
2018-03-04T00:17:06.082Z,92
2018-03-04T00:18:15.804Z,92.38
2018-03-04T00:19:25.805Z,92
2018-03-04T00:20:35.528Z,92.29
2018-03-04T00:21:44.981Z,92.47
2018-03-04T00:22:54.969Z,92.71
2018-03-04T00:24:04.978Z,92.62
2018-03-04T00:25:14.740Z,92.95
2018-03-04T00:26:24.731Z,93.47
2018-03-04T00:27:34.720Z,93.47
2018-03-04T00:28:44.738Z,94.5
2018-03-04T00:29:54.460Z,94.22
2018-03-04T00:31:04.462Z,94.31
2018-03-04T00:32:14.459Z,94.27
2018-03-04T00:33:24.187Z,94.08
2018-03-04T00:34:33.950Z,94.41
2018-03-04T00:35:43.684Z,94.22
2018-03-04T00:36:53.681Z,94.31
2018-03-04T00:38:03.669Z,95.31
2018-03-04T00:39:13.661Z,94.93
2018-03-04T00:40:23.648Z,94.93
2018-03-04T00:41:33.636Z,94.46
2018-03-04T00:42:43.628Z,95.12
2018-03-04T00:43:52.817Z,94.83
2018-03-04T00:45:02.545Z,95.02
2018-03-04T00:46:11.987Z,94.74
2018-03-04T00:47:21.977Z,95.02
2018-03-04T00:48:31.703Z,94.93
2018-03-04T00:49:41.696Z,95.12
2018-03-04T00:50:51.684Z,95.4
2018-03-04T00:52:01.682Z,94.83
2018-03-04T00:53:11.414Z,95.21
2018-03-04T00:54:21.134Z,94.83
2018-03-04T00:55:31.120Z,95.12
2018-03-04T00:56:40.835Z,94.74
2018-03-04T00:57:50.555Z,94.83
2018-03-04T00:59:00.020Z,94.74
2018-03-04T01:00:09.743Z,95.02
2018-03-04T01:01:19.477Z,94.74
2018-03-04T01:02:29.197Z,94.83
2018-03-04T01:03:39.189Z,95.02
2018-03-04T01:04:49.185Z,94.93
2018-03-04T01:05:58.914Z,94.46
2018-03-04T01:07:08.663Z,93.7
2018-03-04T01:08:18.663Z,93.51
2018-03-04T01:09:28.653Z,93.61
2018-03-04T01:10:38.644Z,92.66
2018-03-04T01:11:48.368Z,93.51
2018-03-04T01:12:58.351Z,93.61
2018-03-04T01:14:08.080Z,93.89
2018-03-04T01:15:17.804Z,92.76
2018-03-04T01:16:27.790Z,92.76
2018-03-04T01:17:37.511Z,92.38
2018-03-04T01:18:47.496Z,92.1
2018-03-04T01:19:57.480Z,92.66
2018-03-04T01:21:07.209Z,93.42
2018-03-04T01:22:16.929Z,93.8
2018-03-04T01:23:26.912Z,93.42
2018-03-04T01:24:36.899Z,93.61
2018-03-04T01:25:46.358Z,93.61
2018-03-04T01:26:56.078Z,93.42
2018-03-04T01:28:05.642Z,93.42
2018-03-04T01:29:15.637Z,94.55
2018-03-04T01:30:25.360Z,94.27
2018-03-04T01:31:35.084Z,93.8
2018-03-04T01:32:45.072Z,93.89
2018-03-04T01:33:55.054Z,93.7
2018-03-04T01:35:04.781Z,93.51
2018-03-04T01:36:14.501Z,93.8
2018-03-04T01:37:24.533Z,93.7
2018-03-04T01:38:34.523Z,94.17
2018-03-04T01:39:44.246Z,94.27
2018-03-04T01:40:53.973Z,94.74
2018-03-04T01:42:03.984Z,94.27
2018-03-04T01:43:13.704Z,94.17
2018-03-04T01:44:23.693Z,95.31
2018-03-04T01:45:33.721Z,94.93
2018-03-04T01:46:43.710Z,95.5
2018-03-04T01:47:53.434Z,95.5
2018-03-04T01:49:03.214Z,95.5
2018-03-04T01:50:13.207Z,95.5
2018-03-04T01:51:23.287Z,96.06
2018-03-04T01:52:32.741Z,95.59
2018-03-04T01:53:42.469Z,95.59
2018-03-04T01:54:52.460Z,95.97
2018-03-04T01:56:02.451Z,95.5
2018-03-04T01:57:12.446Z,95.12
2018-03-04T01:58:22.430Z,94.83
2018-03-04T01:59:32.452Z,95.21
2018-03-04T02:00:42.167Z,95.21
2018-03-04T02:01:52.153Z,95.12
2018-03-04T02:03:01.880Z,95.31
2018-03-04T02:04:11.606Z,95.21
2018-03-04T02:05:21.349Z,94.55
2018-03-04T02:06:31.076Z,94.27
2018-03-04T02:07:40.795Z,94.55
2018-03-04T02:08:50.785Z,95.02
2018-03-04T02:10:00.776Z,94.55
2018-03-04T02:11:09.960Z,95.5
2018-03-04T02:12:19.948Z,96.15
2018-03-04T02:13:29.989Z,97
2018-03-04T02:14:39.990Z,97.09
2018-03-04T02:15:49.980Z,97.56
2018-03-04T02:16:59.977Z,98.6
2018-03-04T02:18:09.702Z,99.26
2018-03-04T02:19:19.423Z,99.99
2018-03-04T02:20:29.430Z,99.93
2018-03-04T02:21:39.418Z,99.99
2018-03-04T02:22:49.414Z,99.99
2018-03-04T02:23:59.142Z,99.99
2018-03-04T02:25:08.866Z,99.99
2018-03-04T02:26:18.902Z,99.99
2018-03-04T02:27:28.368Z,99.99
2018-03-04T02:28:38.359Z,99.99
2018-03-04T02:29:48.341Z,99.99
2018-03-04T02:30:58.333Z,99.99
2018-03-04T02:32:08.408Z,99.99
2018-03-04T02:33:17.872Z,99.99
2018-03-04T02:34:27.978Z,99.99
2018-03-04T02:35:37.697Z,99.99
2018-03-04T02:36:47.692Z,99.99
2018-03-04T02:37:57.430Z,99.99
2018-03-04T02:39:07.171Z,99.99
2018-03-04T02:40:16.916Z,99.99
2018-03-04T02:41:26.915Z,99.99
2018-03-04T02:42:36.104Z,99.99
2018-03-04T02:43:46.103Z,99.99
2018-03-04T02:44:55.837Z,99.99
2018-03-04T02:46:05.295Z,99.99
2018-03-04T02:47:15.024Z,99.99
2018-03-04T02:48:25.029Z,99.99
2018-03-04T02:49:34.760Z,99.99
2018-03-04T02:50:44.489Z,99.99
2018-03-04T02:51:54.510Z,99.99
2018-03-04T02:53:04.268Z,99.99
2018-03-04T02:54:14.004Z,99.99
2018-03-04T02:55:24.137Z,99.99
2018-03-04T02:56:34.135Z,99.99
2018-03-04T02:57:43.874Z,99.99
2018-03-04T02:58:53.870Z,99.99
2018-03-04T03:00:03.897Z,99.99
2018-03-04T03:01:13.893Z,99.99
2018-03-04T03:02:23.889Z,99.99
2018-03-04T03:03:33.901Z,99.99
2018-03-04T03:04:43.908Z,99.99
2018-03-04T03:05:53.903Z,99.99
2018-03-04T03:07:03.961Z,99.99
2018-03-04T03:08:12.882Z,99.99
2018-03-04T03:09:22.341Z,99.99
2018-03-04T03:10:31.801Z,99.99
2018-03-04T03:11:41.524Z,99.99
2018-03-04T03:12:51.512Z,99.99
2018-03-04T03:14:01.505Z,99.99
2018-03-04T03:15:10.694Z,99.99
2018-03-04T03:16:20.457Z,99.99
2018-03-04T03:17:29.923Z,99.99
2018-03-04T03:18:40.008Z,99.93
2018-03-04T03:19:50.001Z,99.83
2018-03-04T03:21:00.047Z,99.93
2018-03-04T03:22:10.046Z,99.55
2018-03-04T03:23:20.040Z,99.99
2018-03-04T03:24:29.858Z,99.99
2018-03-04T03:25:39.846Z,99.99
2018-03-04T03:26:49.843Z,99.99
2018-03-04T03:27:59.838Z,99.93
2018-03-04T03:29:09.823Z,99.36
2018-03-04T03:30:19.382Z,99.55
2018-03-04T03:31:28.586Z,99.36
2018-03-04T03:32:38.313Z,99.45
2018-03-04T03:33:48.315Z,99.17
2018-03-04T03:34:58.040Z,99.17
2018-03-04T03:36:07.860Z,98.79
2018-03-04T03:37:17.862Z,99.26
2018-03-04T03:38:27.586Z,99.17
2018-03-04T03:39:37.040Z,99.36
2018-03-04T03:40:46.763Z,99.45
2018-03-04T03:41:56.748Z,99.64
2018-03-04T03:43:06.752Z,98.7
2018-03-04T03:44:16.756Z,98.23
2018-03-04T03:45:26.768Z,98.6
2018-03-04T03:46:35.954Z,98.6
2018-03-04T03:47:45.937Z,98.6
2018-03-04T03:48:55.663Z,98.89
2018-03-04T03:50:04.852Z,98.7
2018-03-04T03:51:14.575Z,98.32
2018-03-04T03:52:24.301Z,98.79
2018-03-04T03:53:34.077Z,99.36
2018-03-04T03:54:44.066Z,99.08
2018-03-04T03:55:54.052Z,99.99
2018-03-04T03:57:03.784Z,99.93
2018-03-04T03:58:13.503Z,99.08
2018-03-04T03:59:23.507Z,99.36
2018-03-04T04:03:23.040Z,99.93
2018-03-04T04:04:32.495Z,99.64
2018-03-04T04:05:42.221Z,99.74
2018-03-04T04:06:52.220Z,99.26
2018-03-04T04:08:02.216Z,99.45
2018-03-04T04:09:12.200Z,99.17
2018-03-04T04:10:21.654Z,98.79
2018-03-04T04:11:31.390Z,99.45
2018-03-04T04:12:41.374Z,99.55
2018-03-04T04:13:51.365Z,98.89
2018-03-04T04:15:01.356Z,98.51
2018-03-04T04:16:11.098Z,98.6
2018-03-04T04:17:20.282Z,98.32
2018-03-04T04:18:30.275Z,98.6
2018-03-04T04:19:40.263Z,98.32
2018-03-04T04:20:50.254Z,98.6
2018-03-04T04:22:00.324Z,98.89
2018-03-04T04:23:10.043Z,99.36
2018-03-04T04:24:19.775Z,99.36
2018-03-04T04:25:29.506Z,99.26
2018-03-04T04:26:39.231Z,98.98
2018-03-04T04:27:48.685Z,98.51
2018-03-04T04:28:58.674Z,98.51
2018-03-04T04:30:08.133Z,98.7
2018-03-04T04:31:17.585Z,98.79
2018-03-04T04:32:27.308Z,98.7
2018-03-04T04:33:37.298Z,98.32
2018-03-04T04:34:47.283Z,98.32
2018-03-04T04:35:57.280Z,99.08
2018-03-04T04:37:07.000Z,99.36
2018-03-04T04:38:16.984Z,99.74
2018-03-04T04:39:26.966Z,99.74
2018-03-04T04:40:36.685Z,99.99
2018-03-04T04:41:46.667Z,99.99
2018-03-04T04:42:56.121Z,99.64
2018-03-04T04:44:05.849Z,99.83
2018-03-04T04:45:15.305Z,99.45
2018-03-04T04:46:25.029Z,99.55
2018-03-04T04:47:35.025Z,99.08
2018-03-04T04:48:45.014Z,98.7
2018-03-04T04:49:55.012Z,98.89
2018-03-04T04:51:04.999Z,98.79
2018-03-04T04:52:14.454Z,98.6
2018-03-04T04:53:24.453Z,98.7
2018-03-04T04:54:34.440Z,99.5
2018-03-04T04:55:44.163Z,99.55
2018-03-04T04:56:53.717Z,99.99
2018-03-04T04:58:03.711Z,99.99
2018-03-04T04:59:13.698Z,99.99
2018-03-04T05:00:23.684Z,99.99
2018-03-04T05:01:33.405Z,99.99
2018-03-04T05:02:43.501Z,99.99
2018-03-04T05:03:53.220Z,99.99
2018-03-04T05:05:02.680Z,99.99
2018-03-04T05:06:12.402Z,99.99
2018-03-04T05:07:22.390Z,99.99
2018-03-04T05:08:32.109Z,99.99
2018-03-04T05:09:42.099Z,99.99
2018-03-04T05:10:52.084Z,99.99
2018-03-04T05:12:01.809Z,99.93
2018-03-04T05:13:11.265Z,99.68
2018-03-04T05:14:20.988Z,99.99
2018-03-04T05:15:31.018Z,99.64
2018-03-04T05:16:40.475Z,99.99
2018-03-04T05:17:50.205Z,99.12
2018-03-04T05:18:59.930Z,99.08
2018-03-04T05:20:09.776Z,99.08
2018-03-04T05:21:19.761Z,99.31
2018-03-04T05:22:29.480Z,99.99
2018-03-04T05:23:39.208Z,99.99
2018-03-04T05:24:48.935Z,99.93
2018-03-04T05:25:58.393Z,99.99
2018-03-04T05:27:08.120Z,99.99
2018-03-04T05:28:17.842Z,99.99
2018-03-04T05:29:27.572Z,99.99
2018-03-04T05:30:37.562Z,99.97
2018-03-04T05:31:47.554Z,99.99
2018-03-04T05:32:57.545Z,99.68
2018-03-04T05:34:07.539Z,99.99
2018-03-04T05:35:17.262Z,99.78
2018-03-04T05:36:27.257Z,99.99
2018-03-04T05:37:37.252Z,99.99
2018-03-04T05:38:47.246Z,99.99
2018-03-04T05:39:57.239Z,99.99
2018-03-04T05:41:06.703Z,99.99
2018-03-04T05:42:16.694Z,99.99
2018-03-04T05:43:26.673Z,99.99
2018-03-04T05:44:36.652Z,99.99
2018-03-04T05:45:46.688Z,99.99
2018-03-04T05:46:56.678Z,99.99
2018-03-04T05:48:06.412Z,99.99
2018-03-04T05:49:16.407Z,99.99
2018-03-04T05:50:26.401Z,99.93
2018-03-04T05:51:36.129Z,99.68
2018-03-04T05:52:45.586Z,99.99
2018-03-04T05:53:55.596Z,99.78
2018-03-04T05:55:05.055Z,99.31
2018-03-04T05:56:14.776Z,99.31
2018-03-04T05:57:24.495Z,99.12
2018-03-04T05:58:34.224Z,99.68
2018-03-04T05:59:44.215Z,99.87
2018-03-04T06:00:53.941Z,99.97
2018-03-04T06:02:03.665Z,99.87
2018-03-04T06:03:13.665Z,99.36
2018-03-04T06:04:23.122Z,98.55
2018-03-04T06:05:32.867Z,98.23
2018-03-04T06:06:42.592Z,97.19
2018-03-04T06:07:52.582Z,97.42
2018-03-04T06:09:02.301Z,97.33
2018-03-04T06:10:12.025Z,97.42
2018-03-04T06:11:21.751Z,98.08
2018-03-04T06:12:31.744Z,97.99
2018-03-04T06:13:41.739Z,98.08
2018-03-04T06:14:51.471Z,98.65
2018-03-04T06:16:01.189Z,99.21
2018-03-04T06:17:11.187Z,99.12
2018-03-04T06:18:20.377Z,99.4
2018-03-04T06:19:29.833Z,99.31
2018-03-04T06:20:39.552Z,99.02
2018-03-04T06:21:49.535Z,99.31
2018-03-04T06:22:59.523Z,99.31
2018-03-04T06:24:09.518Z,98.74
2018-03-04T06:25:19.248Z,98.93
2018-03-04T06:26:29.240Z,98.74
2018-03-04T06:27:39.224Z,98.27
2018-03-04T06:28:49.207Z,97.8
2018-03-04T06:29:59.193Z,97.71
2018-03-04T06:31:09.190Z,97.8
2018-03-04T06:32:19.190Z,97.89
2018-03-04T06:33:28.976Z,98.65
2018-03-04T06:34:38.974Z,98.36
2018-03-04T06:35:48.959Z,98.27
2018-03-04T06:36:58.945Z,98.36
2018-03-04T06:38:08.667Z,98.7
2018-03-04T06:39:18.714Z,97.89
2018-03-04T06:40:28.197Z,98.55
2018-03-04T06:41:37.650Z,98.83
2018-03-04T06:42:47.644Z,98.83
2018-03-04T06:43:57.365Z,99.21
2018-03-04T06:45:07.361Z,98.79
2018-03-04T06:46:17.354Z,98.23
2018-03-04T06:47:27.074Z,98.7
2018-03-04T06:48:36.793Z,98.7
2018-03-04T06:49:46.780Z,97.56
2018-03-04T06:50:56.770Z,96.62
2018-03-04T06:52:06.761Z,96.25
2018-03-04T06:53:16.491Z,96.34
2018-03-04T06:54:26.479Z,96.06
2018-03-04T06:55:36.462Z,96.15
2018-03-04T06:56:46.452Z,96.06
2018-03-04T06:57:56.523Z,96.06
2018-03-04T06:59:06.539Z,96.06
2018-03-04T07:00:15.727Z,95.73
2018-03-04T07:01:25.719Z,95.92
2018-03-04T07:02:34.913Z,96.06
2018-03-04T07:03:44.635Z,95.64
2018-03-04T07:04:54.685Z,95.5
2018-03-04T07:06:04.138Z,95.97
2018-03-04T07:07:13.862Z,96.01
2018-03-04T07:08:23.587Z,95.78
2018-03-04T07:09:33.307Z,95.5
2018-03-04T07:10:43.350Z,95.87
2018-03-04T07:11:53.073Z,95.97
2018-03-04T07:13:02.794Z,95.78
2018-03-04T07:14:12.247Z,95.12
2018-03-04T07:15:21.970Z,93.98
2018-03-04T07:16:31.962Z,93.8
2018-03-04T07:17:41.686Z,93.7
2018-03-04T07:18:51.416Z,92.57
2018-03-04T07:20:01.404Z,92.76
2018-03-04T07:21:11.393Z,93.61
2018-03-04T07:22:21.224Z,94.17
2018-03-04T07:23:31.311Z,94.08
2018-03-04T07:24:41.316Z,95.5
2018-03-04T07:25:51.320Z,95.12
2018-03-04T07:27:01.311Z,95.02
2018-03-04T07:28:11.405Z,94.93
2018-03-04T07:29:21.408Z,95.31
2018-03-04T07:30:31.129Z,94.55
2018-03-04T07:31:41.123Z,94.27
2018-03-04T07:32:51.109Z,93.98
2018-03-04T07:34:00.827Z,93.7
2018-03-04T07:35:10.613Z,93.32
2018-03-04T07:36:20.330Z,93.8
2018-03-04T07:37:30.051Z,93.61
2018-03-04T07:38:40.055Z,93.42
2018-03-04T07:39:50.038Z,93.42
2018-03-04T07:41:00.026Z,93.61
2018-03-04T07:42:09.757Z,93.8
2018-03-04T07:43:19.745Z,93.8
2018-03-04T07:44:29.737Z,94.5
2018-03-04T07:45:39.725Z,94.46
2018-03-04T07:46:49.720Z,95.02
2018-03-04T07:47:59.720Z,94.93
2018-03-04T07:49:09.183Z,94.36
2018-03-04T07:50:18.906Z,93.89
2018-03-04T07:51:28.623Z,93.42
2018-03-04T07:52:38.676Z,93.42
2018-03-04T07:53:48.397Z,92.85
2018-03-04T07:54:57.857Z,93.04
2018-03-04T07:56:07.310Z,93.23
2018-03-04T07:57:16.509Z,92.47
2018-03-04T07:58:26.228Z,92.19
2018-03-04T07:59:35.522Z,91.72
2018-03-04T08:00:45.252Z,92.19
2018-03-04T08:01:54.706Z,92.29
2018-03-04T08:03:04.433Z,92.1
2018-03-04T08:04:13.885Z,92.1
2018-03-04T08:05:23.610Z,92.38
2018-03-04T08:06:33.332Z,92.95
2018-03-04T08:07:43.349Z,92.66
2018-03-04T08:08:52.810Z,93.23
2018-03-04T08:10:02.534Z,92.76
2018-03-04T08:11:12.261Z,93.04
2018-03-04T08:12:22.254Z,93.23
2018-03-04T08:13:32.020Z,92.76
2018-03-04T08:14:42.011Z,92.57
2018-03-04T08:15:51.728Z,92.76
2018-03-04T08:17:01.713Z,92.66
2018-03-04T08:18:11.699Z,92.19
2018-03-04T08:19:21.696Z,90.97
2018-03-04T08:20:31.680Z,90.59
2018-03-04T08:21:41.664Z,90.88
2018-03-04T08:22:51.661Z,90.41
2018-03-04T08:24:01.671Z,90.88
2018-03-04T08:25:11.668Z,91.25
2018-03-04T08:26:21.496Z,91.16
2018-03-04T08:27:31.225Z,91.25
2018-03-04T08:28:41.326Z,90.69
2018-03-04T08:29:51.318Z,90.78
2018-03-04T08:31:01.044Z,91.06
2018-03-04T08:32:11.030Z,91.06
2018-03-04T08:33:20.758Z,90.88
2018-03-04T08:34:30.803Z,91.35
2018-03-04T08:35:40.310Z,90.59
2018-03-04T08:36:50.044Z,90.78
2018-03-04T08:37:59.768Z,90.41
2018-03-04T08:39:09.798Z,90.5
2018-03-04T08:40:19.568Z,90.12
2018-03-04T08:41:29.710Z,90.07
2018-03-04T08:42:39.170Z,89.69
2018-03-04T08:43:48.889Z,89.51
2018-03-04T08:44:58.877Z,89.98
2018-03-04T08:46:08.605Z,89.13
2018-03-04T08:47:18.329Z,88.75
2018-03-04T08:48:28.320Z,88.75
2018-03-04T08:49:38.096Z,88.37
2018-03-04T08:50:47.920Z,88.09
2018-03-04T08:51:57.651Z,88.18
2018-03-04T08:53:07.381Z,88.84
2018-03-04T08:54:17.373Z,88.47
2018-03-04T08:55:26.826Z,88.84
2018-03-04T08:56:36.814Z,88.09
2018-03-04T08:57:46.810Z,87.34
2018-03-04T08:58:56.804Z,87.15
2018-03-04T09:00:06.826Z,86.49
2018-03-04T09:01:17.219Z,86.4
2018-03-04T09:02:26.676Z,86.4
2018-03-04T09:03:36.673Z,86.49
2018-03-04T09:04:46.666Z,86.21
2018-03-04T09:05:56.393Z,86.02
2018-03-04T09:07:06.385Z,85.92
2018-03-04T09:08:16.391Z,85.92
2018-03-04T09:09:26.378Z,85.73
2018-03-04T09:10:36.485Z,86.11
2018-03-04T09:11:46.480Z,85.64
2018-03-04T09:12:56.470Z,86.3
2018-03-04T09:14:06.204Z,85.45
2018-03-04T09:15:15.664Z,85.54
2018-03-04T09:16:25.656Z,85.83
2018-03-04T09:17:35.379Z,85.83
2018-03-04T09:18:45.108Z,85.54
2018-03-04T09:19:54.607Z,85.36
2018-03-04T09:21:04.331Z,85.92
2018-03-04T09:22:14.057Z,85.92
2018-03-04T09:23:24.080Z,86.11
2018-03-04T09:24:33.806Z,85.77
2018-03-04T09:25:43.535Z,85.54
2018-03-04T09:26:52.997Z,85.4
2018-03-04T09:28:02.721Z,85.11
2018-03-04T09:29:12.192Z,85.49
2018-03-04T09:30:21.927Z,85.11
2018-03-04T09:31:31.665Z,84.92
2018-03-04T09:32:41.660Z,84.64
2018-03-04T09:33:51.656Z,84.08
2018-03-04T09:35:01.384Z,84.08
2018-03-04T09:36:10.844Z,84.08
2018-03-04T09:37:20.840Z,83.7
2018-03-04T09:38:30.988Z,84.22
2018-03-04T09:39:41.002Z,84.17
2018-03-04T09:40:50.748Z,84.03
2018-03-04T09:42:00.752Z,84.22
2018-03-04T09:43:10.492Z,84.22
2018-03-04T09:44:20.222Z,84.03
2018-03-04T09:45:30.084Z,84.13
2018-03-04T09:46:39.887Z,83.65
2018-03-04T09:47:49.880Z,84.51
2018-03-04T09:48:59.872Z,84.22
2018-03-04T09:50:09.906Z,84.22
2018-03-04T09:51:19.638Z,83.56
2018-03-04T09:52:29.629Z,83.37
2018-03-04T09:53:39.623Z,83.28
2018-03-04T09:54:49.619Z,83.47
2018-03-04T09:55:59.615Z,83.75
2018-03-04T09:57:09.624Z,83.28
2018-03-04T09:58:19.617Z,83.65
2018-03-04T09:59:29.184Z,83.56
2018-03-04T10:00:39.182Z,83.56
2018-03-04T10:01:48.908Z,83.65
2018-03-04T10:02:58.367Z,83.56
2018-03-04T10:04:07.825Z,83
2018-03-04T10:05:17.024Z,82.95
2018-03-04T10:06:26.752Z,82.76
2018-03-04T10:07:36.748Z,82.34
2018-03-04T10:08:46.813Z,82.57
2018-03-04T10:09:56.290Z,82.66
2018-03-04T10:11:05.758Z,82.47
2018-03-04T10:12:14.953Z,82.28
2018-03-04T10:13:24.675Z,82.57
2018-03-04T10:14:34.675Z,82.53
2018-03-04T10:15:44.399Z,82.85
2018-03-04T10:16:54.402Z,82.81
2018-03-04T10:18:04.127Z,83
2018-03-04T10:19:14.129Z,83.09
2018-03-04T10:20:24.142Z,82.81
2018-03-04T10:21:34.242Z,82.81
2018-03-04T10:22:43.969Z,83
2018-03-04T10:23:53.438Z,83.09
2018-03-04T10:25:02.897Z,82.9
2018-03-04T10:26:12.447Z,83.28
2018-03-04T10:27:21.890Z,82.76
2018-03-04T10:28:31.887Z,82.95
2018-03-04T10:29:41.888Z,83.14
2018-03-04T10:30:51.889Z,83.14
2018-03-04T10:32:01.881Z,82.76
2018-03-04T10:33:11.615Z,82.28
2018-03-04T10:34:21.393Z,82.1
2018-03-04T10:35:30.855Z,81.91
2018-03-04T10:36:40.584Z,81.38
2018-03-04T10:37:50.045Z,81.48
2018-03-04T10:38:59.785Z,80.72
2018-03-04T10:40:09.785Z,79.78
2018-03-04T10:41:19.843Z,79.49
2018-03-04T10:42:29.581Z,79.3
2018-03-04T10:43:39.307Z,79.02
2018-03-04T10:44:49.028Z,79.78
2018-03-04T10:45:59.125Z,79.11
2018-03-04T10:47:08.585Z,78.74
2018-03-04T10:48:18.577Z,78.74
2018-03-04T10:49:28.312Z,78.55
2018-03-04T10:50:38.043Z,78.36
2018-03-04T10:51:48.050Z,77.89
2018-03-04T10:52:57.781Z,77.42
2018-03-04T10:54:07.247Z,77.45
2018-03-04T10:55:17.243Z,77.45
2018-03-04T10:56:26.705Z,76.89
2018-03-04T10:57:36.703Z,76.98
2018-03-04T10:58:46.724Z,76.79
2018-03-04T10:59:56.729Z,77.08
2018-03-04T11:01:06.469Z,76.23
2018-03-04T11:02:16.470Z,76.32
2018-03-04T11:03:26.470Z,75.57
2018-03-04T11:04:36.461Z,74.9
2018-03-04T11:05:46.212Z,75.19
2018-03-04T11:06:56.204Z,75.09
2018-03-04T11:08:05.927Z,74.53
2018-03-04T11:09:15.937Z,74.38
2018-03-04T11:10:25.982Z,73.81
2018-03-04T11:11:35.761Z,73.9
2018-03-04T11:12:45.822Z,74.19
2018-03-04T11:13:55.816Z,73.81
2018-03-04T11:15:05.276Z,73.52
2018-03-04T11:16:14.743Z,73.52
2018-03-04T11:17:24.469Z,74.04
2018-03-04T11:18:33.933Z,74.32
2018-03-04T11:19:43.927Z,73.66
2018-03-04T11:20:53.930Z,73.09
2018-03-04T11:22:03.664Z,72.43
2018-03-04T11:23:13.397Z,72.33
2018-03-04T11:24:23.128Z,72.43
2018-03-04T11:25:32.668Z,71.77
2018-03-04T11:26:42.402Z,71.3
2018-03-04T11:27:51.611Z,71.11
2018-03-04T11:29:01.622Z,71.3
2018-03-04T11:30:11.630Z,70.82
2018-03-04T11:31:21.099Z,71.01
2018-03-04T11:32:30.932Z,71.11
2018-03-04T11:33:40.670Z,70.92
2018-03-04T11:34:50.136Z,70.63
2018-03-04T11:35:59.868Z,70.44
2018-03-04T11:37:09.343Z,70.06
2018-03-04T11:38:19.084Z,69.97
2018-03-04T11:39:28.554Z,69.87
2018-03-04T11:40:37.487Z,69.78
2018-03-04T11:41:46.962Z,70.06
2018-03-04T11:42:56.493Z,70.06
2018-03-04T11:44:06.503Z,69.87
2018-03-04T11:45:15.702Z,69.34
2018-03-04T11:46:24.903Z,69.15
2018-03-04T11:47:34.376Z,68.49
2018-03-04T11:48:43.840Z,69.06
2018-03-04T11:49:53.834Z,68.96
2018-03-04T11:51:03.853Z,68.52
2018-03-04T11:52:13.870Z,67.39
2018-03-04T11:53:23.619Z,66.35
2018-03-04T11:54:33.616Z,66.06
2018-03-04T11:55:43.622Z,66.67
2018-03-04T11:56:53.414Z,66.86
2018-03-04T11:58:03.419Z,66.76
2018-03-04T11:59:13.155Z,66.67
2018-03-04T12:00:22.889Z,64.52
2018-03-04T12:01:32.361Z,64.49
2018-03-04T12:02:42.099Z,64.49
2018-03-04T12:03:52.161Z,64.39
2018-03-04T12:05:01.978Z,64.58
2018-03-04T12:06:11.718Z,64.49
2018-03-04T12:07:21.464Z,64.61
2018-03-04T12:08:31.605Z,64.61
2018-03-04T12:09:41.788Z,64.36
2018-03-04T12:10:51.877Z,63.98
2018-03-04T12:12:01.894Z,64.27
2018-03-04T12:13:11.630Z,63.45
2018-03-04T12:14:21.097Z,62.97
2018-03-04T12:15:30.296Z,63.17
2018-03-04T12:16:40.314Z,61.46
2018-03-04T12:17:50.067Z,60.79
2018-03-04T12:19:00.075Z,61.17
2018-03-04T12:20:09.812Z,60.7
2018-03-04T12:21:19.280Z,60.41
2018-03-04T12:22:29.286Z,59.59
2018-03-04T12:23:39.293Z,59.4
2018-03-04T12:24:48.759Z,60.06
2018-03-04T12:25:58.775Z,60.25
2018-03-04T12:27:08.246Z,59.78
2018-03-04T12:28:17.732Z,58.64
2018-03-04T12:29:27.469Z,58.54
2018-03-04T12:30:37.576Z,58.48
2018-03-04T12:31:47.315Z,58.29
2018-03-04T12:32:57.050Z,58.39
2018-03-04T12:34:07.060Z,58.58
2018-03-04T12:35:16.800Z,57.94
2018-03-04T12:36:26.544Z,58.51
2018-03-04T12:37:36.555Z,58.32
2018-03-04T12:38:46.295Z,57.68
2018-03-04T12:39:56.039Z,57.5
2018-03-04T12:41:05.511Z,57.3
2018-03-04T12:42:15.248Z,57.5
2018-03-04T12:43:24.993Z,57.02
2018-03-04T12:44:34.998Z,56.83
2018-03-04T12:45:44.471Z,56.07
2018-03-04T12:46:54.484Z,56.07
2018-03-04T12:48:04.500Z,55.4
2018-03-04T12:49:14.506Z,54.36
2018-03-04T12:50:24.511Z,53.97
2018-03-04T12:51:34.260Z,52.93
2018-03-04T12:52:44.002Z,51.86
2018-03-04T12:53:53.742Z,51.93
2018-03-04T12:55:03.220Z,51.72
2018-03-04T12:56:13.475Z,53.11
2018-03-04T12:57:24.159Z,54.15
2018-03-04T12:58:34.316Z,54.72
2018-03-04T12:59:44.408Z,53.87
2018-03-04T13:00:54.419Z,53.96
2018-03-04T13:02:04.167Z,54.15
2018-03-04T13:03:13.913Z,55.86
2018-03-04T13:04:23.653Z,55.29
2018-03-04T13:05:32.593Z,56.9
2018-03-04T13:06:42.332Z,57.12
2018-03-04T13:07:52.126Z,55.32
2018-03-04T13:09:01.869Z,53.89
2018-03-04T13:10:11.883Z,53.99
2018-03-04T13:11:21.625Z,55.67
2018-03-04T13:12:31.634Z,55.98
2018-03-04T13:13:40.839Z,55.22
2018-03-04T13:14:50.311Z,53.8
2018-03-04T13:16:00.325Z,52.83
2018-03-04T13:17:10.327Z,54.03
2018-03-04T13:18:19.802Z,55.83
2018-03-04T13:19:29.104Z,55.96
2018-03-04T13:20:39.111Z,55.86
2018-03-04T13:21:48.851Z,55.57
2018-03-04T13:22:58.957Z,55.76
2018-03-04T13:24:08.709Z,55.38
2018-03-04T13:25:18.706Z,55.1
2018-03-04T13:26:28.708Z,55.29
2018-03-04T13:27:38.449Z,55.29
2018-03-04T13:28:48.219Z,55.67
2018-03-04T13:29:58.224Z,55.67
2018-03-04T13:31:07.425Z,55.57
2018-03-04T13:32:17.432Z,55.93
2018-03-04T13:33:26.906Z,55.93
2018-03-04T13:34:36.907Z,54.69
2018-03-04T13:35:46.641Z,55.55
2018-03-04T13:36:56.643Z,55.05
2018-03-04T13:38:06.382Z,55.52
2018-03-04T13:39:16.385Z,57.23
2018-03-04T13:40:26.390Z,57.57
2018-03-04T13:41:36.126Z,57.95
2018-03-04T13:42:46.129Z,57.29
2018-03-04T13:43:55.863Z,58.05
2018-03-04T13:45:05.617Z,57.76
2018-03-04T13:46:15.362Z,57.29
2018-03-04T13:47:24.929Z,58.24
2018-03-04T13:48:34.930Z,58.59
2018-03-04T13:49:44.133Z,58.71
2018-03-04T13:50:53.874Z,59.06
2018-03-04T13:52:03.614Z,58.81
2018-03-04T13:53:13.614Z,58.52
2018-03-04T13:54:23.621Z,58.52
2018-03-04T13:55:33.362Z,58.62
2018-03-04T13:56:43.366Z,57.95
2018-03-04T13:57:53.102Z,58.24
2018-03-04T13:59:02.837Z,58.33
2018-03-04T14:00:12.845Z,57.95
2018-03-04T14:01:22.676Z,58.49
2018-03-04T14:02:32.104Z,58.87
2018-03-04T14:03:42.108Z,58.87
2018-03-04T14:04:51.576Z,58.68
2018-03-04T14:06:01.328Z,59.44
2018-03-04T14:07:11.326Z,59.63
2018-03-04T14:08:21.320Z,59.63
2018-03-04T14:09:31.058Z,59.91
2018-03-04T14:10:41.058Z,59.91
2018-03-04T14:11:51.061Z,60.55
2018-03-04T14:13:01.068Z,60.93
2018-03-04T14:14:11.068Z,60.74
2018-03-04T14:15:21.067Z,61.4
2018-03-04T14:16:31.259Z,60.93
2018-03-04T14:17:40.991Z,61.21
2018-03-04T14:18:51.000Z,61.21
2018-03-04T14:20:00.730Z,61.58
2018-03-04T14:21:10.468Z,61.3
2018-03-04T14:22:20.469Z,61.96
2018-03-04T14:23:30.201Z,62.44
2018-03-04T14:24:39.676Z,62.63
2018-03-04T14:25:49.416Z,62.53
2018-03-04T14:26:59.151Z,62.63
2018-03-04T14:28:08.893Z,63.26
2018-03-04T14:29:18.407Z,62.69
2018-03-04T14:30:28.465Z,62.97
2018-03-04T14:31:37.668Z,62.78
2018-03-04T14:32:47.820Z,63.07
2018-03-04T14:33:57.830Z,62.97
2018-03-04T14:35:07.566Z,63.26
2018-03-04T14:36:17.316Z,63.35
2018-03-04T14:37:27.038Z,63.82
2018-03-04T14:38:37.033Z,64.11
2018-03-04T14:39:46.765Z,63.73
2018-03-04T14:40:56.494Z,64.01
2018-03-04T14:42:06.494Z,64.01
2018-03-04T14:43:16.498Z,64.67
2018-03-04T14:44:26.227Z,64.58
2018-03-04T14:45:35.953Z,64.73
2018-03-04T14:46:45.952Z,64.73
2018-03-04T14:47:55.407Z,64.64
2018-03-04T14:49:04.887Z,65.3
2018-03-04T14:50:14.635Z,65.78
2018-03-04T14:51:24.364Z,65.97
2018-03-04T14:52:34.363Z,66.44
2018-03-04T14:53:44.373Z,66.72
2018-03-04T14:54:54.372Z,66.63
2018-03-04T14:56:04.096Z,66.72
2018-03-04T14:57:13.566Z,66.63
2018-03-04T14:58:23.564Z,67.38
2018-03-04T14:59:33.303Z,67.29
2018-03-04T15:00:42.767Z,67.47
2018-03-04T15:01:52.491Z,67.29
2018-03-04T15:03:02.224Z,67.29
2018-03-04T15:04:11.948Z,67.66
2018-03-04T15:05:21.676Z,67.66